Accueil
METAR-TAF:

METAR-TAF

Aéroports :

Leesburg, Virginie, États-Unis

latitude: 39-05N, longitude: 077-34W, altitude: 119 m

Observation

Le bulletin a été fait il y a 14 minutes, à 18:55 UTC
Vent 6 kt de nord, variant entre nord/nord-ouest et nord-est
Température 29°C
Humidité 66%
Pression 1010 hPa
Visibilité: 16.1 km
Nuages fragmentés à une hauteur de 3500 ft
Nuages fragmentés à une hauteur de 4600 ft

METAR: KJYO 101855Z AUTO 36006KT 340V050 10SM BKN035 BKN046 29/22 A2983 RMK AO2

Heure: 15:09 (19:09 UTC)


TAF: absent

Observations et prévisions météorologiques de plus de 4000 aéroports (messages METAR et TAF).

Les stations disponibles sont représentées par des disques jaunes et rouges sur la carte.

Passer la souris dessus pour voir le nom de la station.

Cliquer dessus pour voir les observations et prévisions météorologiques.

Pour changer de carte: cliquez sur les boutons verts avec une croix noire pour zoomer, sur le bouton vert avec un tiret pour effectuer un zoom arrière, ou sur les flèches vertes pour les cartes adjacentes.


METAR-TAF: